createdAt,value
2022-11-20T00:02:30.383Z,56.50
2022-11-20T00:07:39.362Z,52.90
2022-11-20T00:12:47.561Z,15.30
2022-11-20T00:17:55.531Z,63.40
2022-11-20T00:23:02.773Z,58.40
2022-11-20T00:28:10.145Z,57.50
2022-11-20T00:33:17.494Z,57.80
2022-11-20T00:43:31.837Z,65.00
2022-11-20T00:48:39.367Z,66.10
2022-11-20T00:53:47.186Z,16.60
2022-11-20T00:58:54.584Z,33.80
2022-11-20T01:04:03.098Z,98.70
2022-11-20T01:09:13.226Z,71.90
2022-11-20T01:14:22.490Z,79.40
2022-11-20T01:19:29.761Z,81.10
2022-11-20T01:24:37.323Z,36.80
2022-11-20T01:29:44.511Z,59.20
2022-11-20T01:34:52.033Z,72.60
2022-11-20T01:39:59.178Z,78.60
2022-11-20T01:50:30.655Z,75.60
2022-11-20T01:55:43.680Z,80.50
2022-11-20T02:00:51.092Z,75.90
2022-11-20T02:06:05.050Z,73.20
2022-11-20T02:11:14.064Z,71.60
2022-11-20T02:16:25.997Z,73.20
2022-11-20T02:21:42.514Z,66.80
2022-11-20T02:27:01.805Z,77.20
2022-11-20T02:32:20.894Z,67.00
2022-11-20T02:37:33.442Z,87.20
2022-11-20T02:42:41.222Z,79.10
2022-11-20T02:47:48.447Z,74.10
2022-11-20T02:52:56.137Z,70.50
2022-11-20T02:58:03.571Z,40.50
2022-11-20T03:03:10.909Z,71.30
2022-11-20T03:08:18.630Z,80.60
2022-11-20T03:13:27.171Z,59.40
2022-11-20T03:18:34.616Z,44.00
2022-11-20T03:23:43.199Z,53.10
2022-11-20T03:28:53.573Z,69.70
2022-11-20T03:34:02.736Z,75.50
2022-11-20T03:39:11.049Z,79.30
2022-11-20T03:44:18.551Z,71.60
2022-11-20T03:49:26.062Z,72.10
2022-11-20T03:54:33.562Z,56.20
2022-11-20T03:59:40.973Z,69.20
2022-11-20T04:04:48.791Z,75.70
2022-11-20T04:09:56.494Z,69.90
2022-11-20T04:15:03.684Z,76.30
2022-11-20T04:20:13.311Z,65.90
2022-11-20T04:25:21.076Z,65.50
2022-11-20T04:30:28.872Z,81.40
2022-11-20T04:35:39.957Z,68.90
2022-11-20T04:40:49.557Z,64.70
2022-11-20T04:45:59.111Z,70.50
2022-11-20T04:51:09.550Z,69.60
2022-11-20T04:56:17.942Z,66.20
2022-11-20T05:01:26.919Z,63.50
2022-11-20T05:06:34.548Z,67.60
2022-11-20T05:11:41.716Z,61.80
2022-11-20T05:16:49.333Z,56.70
2022-11-20T05:21:56.950Z,64.10
2022-11-20T05:27:04.177Z,61.30
2022-11-20T05:32:11.696Z,66.30
2022-11-20T05:37:19.498Z,70.80
2022-11-20T05:42:33.025Z,64.90
2022-11-20T05:47:40.559Z,68.00
2022-11-20T05:52:47.930Z,59.30
2022-11-20T05:57:56.477Z,62.10
2022-11-20T06:03:04.308Z,53.60
2022-11-20T06:08:11.917Z,67.30
2022-11-20T06:13:19.799Z,62.50
2022-11-20T06:18:29.014Z,61.10
2022-11-20T06:23:37.482Z,62.10
2022-11-20T06:28:44.916Z,64.20
2022-11-20T06:33:53.006Z,61.70
2022-11-20T06:39:00.499Z,69.90
2022-11-20T06:44:08.900Z,66.20
2022-11-20T06:49:16.136Z,65.50
2022-11-20T06:54:23.650Z,52.30
2022-11-20T06:59:31.363Z,59.30
2022-11-20T07:04:38.607Z,68.80
2022-11-20T07:09:46.782Z,78.50
2022-11-20T07:14:54.595Z,77.50
2022-11-20T07:30:54.715Z,60.20
2022-11-20T07:36:00.389Z,61.10
2022-11-20T07:41:04.430Z,67.70
2022-11-20T07:46:08.175Z,59.40
2022-11-20T07:51:11.815Z,48.60
2022-11-20T07:56:16.169Z,48.20
2022-11-20T08:01:20.838Z,76.80
2022-11-20T08:06:25.354Z,101.30
2022-11-20T08:11:47.483Z,107.40
2022-11-20T08:16:51.825Z,81.40
2022-11-20T08:21:56.610Z,97.70
2022-11-20T08:27:00.775Z,103.00
2022-11-20T08:32:05.113Z,90.00
2022-11-20T08:37:16.925Z,75.00
2022-11-20T08:42:20.721Z,84.50
2022-11-20T08:47:24.552Z,76.30
2022-11-20T08:52:28.477Z,81.00
2022-11-20T08:57:34.001Z,91.50
2022-11-20T09:02:40.421Z,103.10
2022-11-20T09:07:44.589Z,91.20
2022-11-20T09:12:52.137Z,103.00
2022-11-20T09:17:58.661Z,95.60
2022-11-20T09:23:02.745Z,94.80
2022-11-20T09:28:06.596Z,68.90
2022-11-20T09:33:10.379Z,80.40
2022-11-20T09:38:15.167Z,51.30
2022-11-20T09:43:25.357Z,48.90
2022-11-20T09:48:43.393Z,47.30
2022-11-20T09:54:01.771Z,100.30
2022-11-20T09:59:11.803Z,108.70
2022-11-20T10:04:18.792Z,105.10
2022-11-20T10:09:32.274Z,100.60
2022-11-20T10:14:50.205Z,76.60
2022-11-20T10:20:14.929Z,58.80
2022-11-20T10:25:23.244Z,92.10
2022-11-20T10:30:28.187Z,95.30
2022-11-20T10:35:39.709Z,56.50
2022-11-20T10:40:46.474Z,60.90
2022-11-20T10:45:58.439Z,85.80
2022-11-20T10:51:12.438Z,94.50
2022-11-20T10:56:22.300Z,90.80
2022-11-20T11:01:27.648Z,83.50
2022-11-20T11:06:36.940Z,84.60
2022-11-20T11:11:41.193Z,79.20
2022-11-20T11:16:53.329Z,73.40
2022-11-20T11:21:57.884Z,80.40
2022-11-20T11:27:29.422Z,40.20
2022-11-20T11:32:33.057Z,70.10
2022-11-20T11:37:39.498Z,75.90
2022-11-20T11:42:47.652Z,83.20
2022-11-20T11:47:53.518Z,89.20
2022-11-20T11:53:09.215Z,87.30
2022-11-20T11:58:28.638Z,58.30
2022-11-20T12:03:37.485Z,85.70
2022-11-20T12:08:48.567Z,81.80
2022-11-20T12:14:02.156Z,63.90
2022-11-20T12:19:11.480Z,74.80
2022-11-20T12:24:43.750Z,72.70
2022-11-20T12:29:58.616Z,66.00
2022-11-20T12:35:13.547Z,73.20
2022-11-20T12:40:36.615Z,67.40
2022-11-20T12:46:15.825Z,68.30
2022-11-20T12:52:12.185Z,71.50
2022-11-20T12:57:24.512Z,66.60
2022-11-20T13:02:36.820Z,68.40
2022-11-20T13:07:43.221Z,70.90
2022-11-20T13:12:50.721Z,55.60
2022-11-20T13:17:58.833Z,66.70
2022-11-20T13:23:02.815Z,73.10
2022-11-20T13:28:30.567Z,78.80
2022-11-20T13:38:47.498Z,77.00
2022-11-20T13:43:53.085Z,79.40
2022-11-20T13:49:08.157Z,74.60
2022-11-20T13:54:54.756Z,78.60
2022-11-20T14:00:05.394Z,80.30
2022-11-20T14:05:20.666Z,73.20
2022-11-20T14:10:31.420Z,78.60
2022-11-20T14:15:41.848Z,93.50
2022-11-20T14:20:50.000Z,82.40
2022-11-20T14:25:54.163Z,87.50
2022-11-20T14:30:58.951Z,87.30
2022-11-20T14:36:02.815Z,90.30
2022-11-20T14:41:17.420Z,83.80
2022-11-20T14:46:22.800Z,82.20
2022-11-20T14:51:32.115Z,83.00
2022-11-20T14:56:36.007Z,68.70
2022-11-20T15:01:39.529Z,80.10
2022-11-20T15:06:52.931Z,88.40
2022-11-20T15:11:58.559Z,84.60
2022-11-20T15:17:02.212Z,89.70
2022-11-20T15:22:13.640Z,107.00
2022-11-20T15:27:17.360Z,98.60
2022-11-20T15:32:22.109Z,102.30
2022-11-20T15:37:29.830Z,106.30
2022-11-20T15:42:34.534Z,104.90
2022-11-20T15:47:38.715Z,139.40
2022-11-20T15:52:42.830Z,135.30
2022-11-20T16:07:53.098Z,115.50
2022-11-20T16:13:17.845Z,118.90
2022-11-20T16:18:25.981Z,115.10
2022-11-20T16:23:34.302Z,121.50
2022-11-20T16:28:42.136Z,125.60
2022-11-20T16:33:53.934Z,137.30
2022-11-20T16:39:03.192Z,122.40
2022-11-20T16:44:12.644Z,125.40
2022-11-20T16:49:20.337Z,110.20
2022-11-20T16:54:28.078Z,65.00
2022-11-20T16:59:35.764Z,113.10
2022-11-20T17:04:43.178Z,136.50
2022-11-20T17:09:52.223Z,129.30
2022-11-20T17:15:00.146Z,135.00
2022-11-20T17:20:09.901Z,123.90
2022-11-20T17:25:17.294Z,130.70
2022-11-20T17:30:25.116Z,122.20
2022-11-20T17:35:32.603Z,98.30
2022-11-20T17:40:39.710Z,111.80
2022-11-20T17:45:47.232Z,113.50
2022-11-20T17:50:54.330Z,126.90
2022-11-20T18:01:25.760Z,122.80
2022-11-20T18:06:33.652Z,125.30
2022-11-20T18:11:43.251Z,115.00
2022-11-20T18:16:52.125Z,111.60
2022-11-20T18:22:01.478Z,116.50
2022-11-20T18:27:10.695Z,103.10
2022-11-20T18:32:18.020Z,125.80
2022-11-20T18:37:28.311Z,96.70
2022-11-20T18:42:55.979Z,120.70
2022-11-20T18:48:03.197Z,129.60
2022-11-20T18:58:16.651Z,111.80
2022-11-20T19:03:24.275Z,115.60
2022-11-20T19:08:31.634Z,121.40
2022-11-20T19:18:45.921Z,112.10
2022-11-20T19:23:56.780Z,115.30
2022-11-20T19:29:06.937Z,106.70
2022-11-20T19:34:14.226Z,97.60
2022-11-20T19:44:26.979Z,80.90
2022-11-20T19:49:34.392Z,29.90
2022-11-20T19:54:42.005Z,151.30
2022-11-20T19:59:49.493Z,122.90
2022-11-20T20:04:57.224Z,132.60
2022-11-20T20:10:04.277Z,114.60
2022-11-20T20:15:12.853Z,96.90
2022-11-20T20:20:22.607Z,122.80
2022-11-20T20:25:30.216Z,124.50
2022-11-20T20:30:39.020Z,152.10
2022-11-20T20:35:47.115Z,112.90
2022-11-20T20:40:54.889Z,116.10
2022-11-20T20:46:02.401Z,121.20
2022-11-20T21:01:29.067Z,89.90
2022-11-20T21:06:37.736Z,101.40
2022-11-20T21:11:45.510Z,117.20
2022-11-20T21:17:28.902Z,120.80
2022-11-20T21:22:36.318Z,124.20
2022-11-20T21:27:40.385Z,136.90
2022-11-20T21:32:44.278Z,118.90
2022-11-20T21:37:48.477Z,108.30
2022-11-20T21:42:55.020Z,127.20
2022-11-20T21:47:58.884Z,131.60
2022-11-20T21:53:02.813Z,95.90
2022-11-20T21:58:06.673Z,89.60
2022-11-20T22:13:40.522Z,58.40
2022-11-20T22:18:48.966Z,108.90
2022-11-20T22:23:56.800Z,115.00
2022-11-20T22:29:04.163Z,141.00
2022-11-20T22:34:13.640Z,130.60
2022-11-20T22:39:23.108Z,127.20
2022-11-20T22:44:30.275Z,127.60
2022-11-20T22:57:59.731Z,82.40
2022-11-20T23:03:07.241Z,99.90
2022-11-20T23:08:15.172Z,147.50
2022-11-20T23:13:22.593Z,138.40
2022-11-20T23:18:29.774Z,107.00
2022-11-20T23:23:37.076Z,84.40
2022-11-20T23:28:45.449Z,76.20
2022-11-20T23:33:53.030Z,78.90
2022-11-20T23:39:00.235Z,132.30
2022-11-20T23:49:13.160Z,147.90
2022-11-20T23:54:20.672Z,141.20
2022-11-20T23:59:27.881Z,121.50
